GSP weather

Greenville Spartanburg International Airport
Greenville, South Carolina, United States

Public forecast

Using degrees Fahrenheit for public forecast. Weather courtesy of forecast.io.

Current aviation weather report (METAR) for Greenville Spartanburg International Airport

Retrieved 2019/10/21 02:53 UTC (44 minutes ago):

KGSP 210253Z 00000KT 10SM FEW035 17/14 A2997 RMK AO2 SLP142 T01670144 53017

Aviation forecast (TAF) for Greenville Spartanburg International Airport

Retrieved 2019-10-21 00:24 UTC (3 hours ago):

TAF KGSP 202321Z 2100/2124 VRB02KT P6SM SCT200 FM210900 06004KT 6SM BR SCT007 OVC012 FM211100 07004KT 4SM BR OVC007 FM211500 11005KT P6SM OVC012 FM211800 15005KT P6SM BKN025